Time;durP1;ratioP1;P1;durP2;ratioP2;P2;SDS_P1;SDS_P2;PMS_P1;PMS_P2;Temp;Humidity;BMP_temperature;BMP_pressure;BME280_temperature;BME280_humidity;BME280_pressure;Samples;Min_cycle;Max_cycle;Signal;HPM_P1;HPM_P2
2023/08/05 00:01:13;;;;;;;3.30;1.63;;;13.90;99.90;;;13.28;100.00;101639.22;4161914;28;20044;-78
2023/08/05 00:03:14;;;;;;;6.32;1.90;;;13.90;99.90;;;13.27;100.00;101636.69;4152193;28;20030;-79
2023/08/05 00:05:15;;;;;;;5.57;1.77;;;13.90;99.90;;;13.24;100.00;101629.06;4168297;28;20032;-78
2023/08/05 00:07:16;;;;;;;7.93;2.67;;;13.90;99.90;;;13.22;100.00;101623.94;4152067;28;20081;-79
2023/08/05 00:09:17;;;;;;;5.03;2.63;;;13.80;99.90;;;13.23;100.00;101636.16;4161513;28;20420;-78
2023/08/05 00:11:18;;;;;;;7.10;3.22;;;13.90;99.90;;;13.21;100.00;101629.34;4156086;28;20030;-78
2023/08/05 00:13:18;;;;;;;8.95;3.80;;;13.90;99.90;;;13.24;100.00;101626.41;4167785;28;20026;-79
2023/08/05 00:15:19;;;;;;;6.57;3.00;;;13.80;99.90;;;13.22;100.00;101621.28;4157585;28;20033;-78
2023/08/05 00:17:20;;;;;;;8.23;3.65;;;13.80;99.90;;;13.24;100.00;101616.66;4159510;28;20037;-79
2023/08/05 00:19:21;;;;;;;6.47;2.75;;;13.90;99.90;;;13.29;100.00;101617.00;4164126;28;20053;-78
2023/08/05 00:21:22;;;;;;;6.18;3.20;;;13.90;99.90;;;13.34;100.00;101618.38;4135597;28;20027;-78
2023/08/05 00:23:23;;;;;;;7.32;2.95;;;13.90;99.90;;;13.32;100.00;101606.13;4157724;28;20559;-78
2023/08/05 00:25:23;;;;;;;5.40;2.70;;;14.00;99.90;;;13.35;100.00;101610.28;4152106;28;20120;-79
2023/08/05 00:27:24;;;;;;;5.70;2.53;;;14.00;99.90;;;13.38;100.00;101620.56;4169411;28;20025;-78
2023/08/05 00:29:25;;;;;;;9.10;3.28;;;14.00;99.90;;;13.39;100.00;101632.00;4166883;28;20053;-79
2023/08/05 00:31:26;;;;;;;7.32;2.90;;;14.00;99.90;;;13.39;100.00;101632.84;4152054;28;20030;-79
2023/08/05 00:33:27;;;;;;;8.50;3.22;;;14.00;99.90;;;13.45;100.00;101636.69;4161466;28;20037;-79
2023/08/05 00:35:28;;;;;;;8.82;2.60;;;14.00;99.90;;;13.46;100.00;101623.31;4169359;28;20041;-79
2023/08/05 00:37:29;;;;;;;6.05;2.40;;;14.10;99.90;;;13.57;100.00;101630.16;4152844;28;20041;-78
2023/08/05 00:39:29;;;;;;;7.13;3.15;;;14.10;99.90;;;13.66;100.00;101629.25;4153002;28;20104;-79
2023/08/05 00:41:30;;;;;;;4.38;2.10;;;14.20;99.90;;;13.68;100.00;101627.25;4151668;28;20018;-78
2023/08/05 00:43:31;;;;;;;5.22;2.75;;;14.30;99.90;;;13.76;100.00;101630.84;4152883;28;20018;-78
2023/08/05 00:45:32;;;;;;;6.85;2.45;;;14.40;99.90;;;13.79;100.00;101635.00;4152711;28;20057;-78
2023/08/05 00:47:33;;;;;;;5.13;2.40;;;14.40;99.90;;;13.88;100.00;101649.97;4155674;28;20044;-79
2023/08/05 00:49:34;;;;;;;5.63;2.60;;;14.50;99.90;;;13.95;100.00;101651.00;4158654;28;20461;-79
2023/08/05 00:51:35;;;;;;;5.18;2.63;;;14.50;99.90;;;13.96;100.00;101647.38;4151496;28;20018;-79
2023/08/05 00:53:37;;;;;;;5.82;2.13;;;14.60;99.90;;;13.98;100.00;101644.56;4152643;28;20064;-78
2023/08/05 00:55:38;;;;;;;4.90;2.50;;;14.60;99.90;;;14.03;100.00;101653.72;4139651;28;20084;-78
2023/08/05 00:57:39;;;;;;;16.40;3.05;;;14.60;99.90;;;14.05;100.00;101645.59;4160729;28;20034;-79
2023/08/05 00:59:40;;;;;;;8.07;2.35;;;14.70;99.90;;;14.12;100.00;101642.19;4161907;28;20586;-79
2023/08/05 01:01:41;;;;;;;5.68;2.85;;;14.70;99.90;;;14.15;100.00;101635.72;4151311;28;20102;-79
2023/08/05 01:03:42;;;;;;;3.80;2.10;;;14.70;99.90;;;14.17;100.00;101626.59;4154736;28;20025;-78
2023/08/05 01:05:44;;;;;;;3.85;1.85;;;14.80;99.90;;;14.08;100.00;101611.63;4168949;28;20056;-79
2023/08/05 01:07:45;;;;;;;4.70;2.90;;;14.80;99.90;;;14.18;100.00;101612.34;4157279;28;20025;-79
2023/08/05 01:09:46;;;;;;;5.88;2.30;;;14.80;99.90;;;14.14;100.00;101613.66;4151439;28;20052;-79
2023/08/05 01:11:48;;;;;;;4.53;2.28;;;14.80;99.90;;;14.14;100.00;101624.25;4168986;28;20496;-79
2023/08/05 01:13:49;;;;;;;5.40;1.90;;;14.80;99.90;;;14.19;100.00;101623.78;4160981;28;20084;-79
2023/08/05 01:15:49;;;;;;;2.75;1.88;;;14.80;99.90;;;14.20;100.00;101623.63;4155991;28;20017;-79
2023/08/05 01:17:54;;;;;;;3.63;1.73;;;14.80;99.90;;;14.16;100.00;101632.91;4154547;28;20033;-79
2023/08/05 01:19:56;;;;;;;4.20;1.92;;;14.80;99.90;;;14.18;100.00;101633.59;4151089;28;20032;-79
2023/08/05 01:22:19;;;;;;;5.15;2.00;;;14.80;99.90;;;14.20;100.00;101625.44;4150843;28;20037;-79
2023/08/05 01:24:36;;;;;;;6.50;2.20;;;14.90;99.90;;;14.24;100.00;101630.31;4151165;28;20052;-79
2023/08/05 01:26:38;;;;;;;7.25;2.35;;;14.90;99.90;;;14.20;100.00;101631.59;4157885;28;20112;-79
2023/08/05 01:28:39;;;;;;;3.05;2.10;;;14.90;99.90;;;14.23;100.00;101619.84;4151081;28;20060;-78
2023/08/05 01:30:42;;;;;;;5.80;2.40;;;14.90;99.90;;;14.22;100.00;101624.31;4167653;28;20025;-79
2023/08/05 01:32:43;;;;;;;7.55;2.83;;;14.90;99.90;;;14.21;100.00;101614.69;4152147;28;20037;-79
2023/08/05 01:34:45;;;;;;;5.47;2.85;;;14.90;99.90;;;14.22;100.00;101610.19;4152363;28;20021;-79
2023/08/05 01:36:46;;;;;;;5.57;2.55;;;14.80;99.90;;;14.23;100.00;101606.56;4142830;28;20038;-79
2023/08/05 01:38:50;;;;;;;4.88;2.17;;;14.80;99.90;;;14.21;100.00;101608.56;4155883;28;20030;-79
2023/08/05 01:40:51;;;;;;;6.15;1.80;;;14.80;99.90;;;14.17;100.00;101602.72;4149897;28;20563;-79
2023/08/05 01:42:52;;;;;;;4.80;2.22;;;14.80;99.90;;;14.13;100.00;101588.09;4140066;28;20025;-79
2023/08/05 01:44:53;;;;;;;4.45;2.55;;;14.80;99.90;;;14.14;100.00;101592.44;4167390;28;20062;-79
2023/08/05 01:46:54;;;;;;;4.75;2.15;;;14.70;99.90;;;14.09;100.00;101589.44;4167463;28;20041;-79
2023/08/05 01:48:54;;;;;;;5.22;2.60;;;14.70;99.90;;;14.00;100.00;101569.16;4136576;28;20413;-79
2023/08/05 01:50:55;;;;;;;10.77;3.28;;;14.70;99.90;;;14.05;100.00;101576.63;4156681;28;20095;-79
2023/08/05 01:52:56;;;;;;;9.13;3.33;;;14.70;99.90;;;13.98;100.00;101560.50;4150740;28;20124;-79
2023/08/05 01:54:57;;;;;;;6.00;2.50;;;14.70;99.90;;;14.01;100.00;101573.44;4167318;28;20041;-79
2023/08/05 01:56:58;;;;;;;3.85;2.40;;;14.70;99.90;;;14.02;100.00;101564.50;4153789;28;20445;-79
2023/08/05 01:58:59;;;;;;;4.75;2.38;;;14.70;99.90;;;14.01;100.00;101560.19;4158692;28;20024;-79
2023/08/05 02:00:59;;;;;;;5.10;2.25;;;14.70;99.90;;;14.08;100.00;101565.69;4163072;28;20037;-79
2023/08/05 02:03:00;;;;;;;4.28;2.08;;;14.70;99.90;;;14.10;100.00;101555.75;4155304;28;20461;-78
2023/08/05 02:05:01;;;;;;;4.10;2.40;;;14.70;99.90;;;14.10;100.00;101548.63;4153937;28;20030;-79
2023/08/05 02:07:02;;;;;;;4.82;2.10;;;14.70;99.90;;;14.10;100.00;101540.66;4155173;28;20037;-79
2023/08/05 02:09:03;;;;;;;8.25;3.20;;;14.70;99.90;;;14.10;100.00;101523.91;4155297;28;20033;-79
2023/08/05 02:11:05;;;;;;;5.22;2.20;;;14.70;99.90;;;14.13;100.00;101542.16;4165811;28;20034;-79
2023/08/05 02:13:06;;;;;;;5.70;1.80;;;14.80;99.90;;;14.05;100.00;101534.16;4171618;28;20099;-79
2023/08/05 02:15:08;;;;;;;5.07;2.10;;;14.70;99.90;;;14.17;100.00;101551.47;4171617;28;20033;-79
2023/08/05 02:17:09;;;;;;;4.30;2.10;;;14.80;99.90;;;14.19;100.00;101566.22;4164348;28;20041;-79
2023/08/05 02:19:09;;;;;;;5.38;2.00;;;14.80;99.90;;;14.21;100.00;101566.94;4164077;28;20037;-79
2023/08/05 02:21:11;;;;;;;3.92;2.10;;;14.80;99.90;;;14.20;100.00;101559.94;4153645;28;20029;-79
2023/08/05 02:23:11;;;;;;;5.40;2.42;;;14.80;99.90;;;14.19;100.00;101537.03;4153925;28;20072;-79
2023/08/05 02:25:12;;;;;;;6.05;2.50;;;14.80;99.90;;;14.21;100.00;101523.63;4160436;28;20022;-79
2023/08/05 02:27:14;;;;;;;5.72;2.80;;;14.80;99.90;;;14.26;100.00;101513.34;4163596;28;20100;-79
2023/08/05 02:29:14;;;;;;;4.40;2.15;;;14.90;99.90;;;14.31;100.00;101497.78;4166562;28;20056;-79
2023/08/05 02:31:16;;;;;;;3.65;2.35;;;14.90;99.90;;;14.34;100.00;101498.31;4154930;28;20041;-79
2023/08/05 02:33:16;;;;;;;8.68;2.55;;;14.90;99.90;;;14.33;100.00;101507.28;4158343;28;20048;-79
2023/08/05 02:35:17;;;;;;;5.95;2.17;;;14.90;99.90;;;14.34;100.00;101516.91;4160841;28;20033;-79
2023/08/05 02:37:18;;;;;;;9.05;2.58;;;14.90;99.90;;;14.38;100.00;101515.59;4153360;28;20038;-79
2023/08/05 02:39:19;;;;;;;5.38;2.78;;;15.00;99.90;;;14.35;100.00;101515.09;4154685;28;20018;-79
2023/08/05 02:41:20;;;;;;;6.30;2.58;;;15.00;99.90;;;14.40;100.00;101518.91;4142403;28;20057;-79
2023/08/05 02:43:21;;;;;;;3.97;1.98;;;15.00;99.90;;;14.41;100.00;101514.44;4154928;28;20022;-79
2023/08/05 02:45:22;;;;;;;4.30;2.80;;;15.00;99.90;;;14.39;100.00;101506.63;4154678;28;20033;-79
2023/08/05 02:47:23;;;;;;;6.15;2.50;;;15.00;99.90;;;14.39;100.00;101503.16;4167878;28;20029;-79
2023/08/05 02:49:24;;;;;;;5.43;2.42;;;15.00;99.90;;;14.43;100.00;101503.63;4154918;28;20030;-79
2023/08/05 02:51:24;;;;;;;5.35;2.80;;;15.00;99.90;;;14.46;100.00;101509.47;4160828;28;20084;-79
2023/08/05 02:53:25;;;;;;;4.20;2.03;;;15.10;99.90;;;14.49;100.00;101505.66;4154619;28;20449;-79
2023/08/05 02:55:28;;;;;;;7.97;2.67;;;15.10;99.90;;;14.47;100.00;101497.84;4154468;28;20038;-79
2023/08/05 02:57:28;;;;;;;7.80;2.85;;;15.10;99.90;;;14.50;100.00;101497.53;4154493;28;20400;-79
2023/08/05 02:59:29;;;;;;;5.55;2.60;;;15.10;99.90;;;14.51;100.00;101493.06;4163094;28;20026;-79
2023/08/05 03:01:30;;;;;;;7.10;3.00;;;15.10;99.90;;;14.47;100.00;101487.25;4158718;28;20476;-80
2023/08/05 03:03:31;;;;;;;6.95;3.05;;;15.10;99.90;;;14.45;100.00;101502.50;4168279;28;20024;-79
2023/08/05 03:05:32;;;;;;;7.72;2.92;;;15.10;99.90;;;14.45;100.00;101509.63;4154407;28;20030;-79
2023/08/05 03:07:33;;;;;;;4.90;2.47;;;15.10;99.90;;;14.42;100.00;101512.63;4152913;28;20029;-79
2023/08/05 03:09:34;;;;;;;4.60;3.00;;;15.00;99.90;;;14.33;100.00;101501.16;4152551;28;20041;-79
2023/08/05 03:11:35;;;;;;;7.38;3.63;;;15.00;99.90;;;14.38;100.00;101507.63;4154428;28;20033;-79
2023/08/05 03:13:35;;;;;;;5.35;2.80;;;15.00;99.90;;;14.39;100.00;101501.31;4165102;28;20463;-79
2023/08/05 03:15:36;;;;;;;6.82;3.33;;;15.00;99.90;;;14.37;100.00;101508.63;4155904;28;20026;-79
2023/08/05 03:17:37;;;;;;;8.20;3.50;;;15.00;99.90;;;14.35;100.00;101507.94;4152857;28;20494;-79
2023/08/05 03:19:38;;;;;;;6.97;3.92;;;15.00;99.90;;;14.37;100.00;101511.25;4153780;28;20022;-79
2023/08/05 03:21:39;;;;;;;8.75;3.70;;;15.00;99.90;;;14.35;100.00;101502.66;4169092;28;20084;-79
2023/08/05 03:23:40;;;;;;;8.15;3.30;;;14.90;99.90;;;14.30;100.00;101486.34;4170597;28;20092;-79
2023/08/05 03:25:41;;;;;;;7.68;3.67;;;14.90;99.90;;;14.32;100.00;101479.09;4159018;28;20026;-79
2023/08/05 03:27:41;;;;;;;6.07;2.97;;;14.90;99.90;;;14.29;100.00;101473.22;4154421;28;20030;-79
2023/08/05 03:29:43;;;;;;;6.47;3.28;;;14.90;99.90;;;14.28;100.00;101452.97;4169116;28;20049;-79
2023/08/05 03:31:44;;;;;;;9.68;3.33;;;14.90;99.90;;;14.28;100.00;101461.78;4169194;28;20080;-79
2023/08/05 03:33:45;;;;;;;9.48;3.58;;;14.90;99.90;;;14.23;100.00;101463.25;4159105;28;20030;-79
2023/08/05 03:35:45;;;;;;;9.15;3.15;;;14.90;99.90;;;14.19;100.00;101457.44;4165810;28;20591;-79
2023/08/05 03:37:47;;;;;;;5.07;2.65;;;14.80;99.90;;;14.09;100.00;101462.06;4165935;28;20073;-79
2023/08/05 03:39:48;;;;;;;6.70;2.58;;;14.80;99.90;;;14.11;100.00;101464.56;4152900;28;20422;-79
2023/08/05 03:41:49;;;;;;;7.15;3.65;;;14.80;99.90;;;14.14;100.00;101470.38;4153851;28;20036;-79
2023/08/05 03:43:49;;;;;;;7.53;3.17;;;14.80;99.90;;;14.12;100.00;101452.97;4165438;28;20025;-79
2023/08/05 03:45:51;;;;;;;6.30;2.75;;;14.80;99.90;;;14.21;100.00;101459.94;4138969;28;20030;-79
2023/08/05 03:47:53;;;;;;;7.70;3.53;;;14.80;99.90;;;14.23;100.00;101456.13;4147010;28;20019;-79
2023/08/05 03:49:54;;;;;;;7.32;3.03;;;14.80;99.90;;;14.24;100.00;101463.13;4153696;28;20026;-79
2023/08/05 03:51:55;;;;;;;6.78;3.40;;;14.80;99.90;;;14.27;100.00;101465.44;4153433;28;20080;-79
2023/08/05 03:53:56;;;;;;;11.10;3.90;;;14.80;99.90;;;14.28;100.00;101469.75;4153514;28;20497;-79
2023/08/05 03:55:57;;;;;;;7.05;3.30;;;14.90;99.90;;;14.27;100.00;101468.09;4153780;28;20025;-79
2023/08/05 03:57:58;;;;;;;6.75;3.10;;;14.90;99.90;;;14.27;100.00;101454.00;4163314;28;20408;-79
2023/08/05 03:59:59;;;;;;;6.10;3.25;;;14.90;99.90;;;14.25;100.00;101448.00;4156039;28;20018;-79
2023/08/05 04:02:00;;;;;;;7.28;3.65;;;14.80;99.90;;;14.25;100.00;101454.13;4154747;28;20026;-79
2023/08/05 04:04:01;;;;;;;8.32;4.00;;;14.80;99.90;;;14.13;100.00;101426.25;4153567;28;20028;-79
2023/08/05 04:06:02;;;;;;;8.15;3.50;;;14.80;99.90;;;14.20;100.00;101434.41;4153160;28;20478;-79
2023/08/05 04:08:03;;;;;;;5.85;2.90;;;14.80;99.90;;;14.22;100.00;101435.88;4152064;28;20026;-79
2023/08/05 04:10:06;;;;;;;8.02;3.95;;;14.80;99.90;;;14.19;100.00;101428.25;4153476;28;20030;-79
2023/08/05 04:12:09;;;;;;;7.60;3.05;;;14.80;99.90;;;14.19;100.00;101425.59;4153398;28;20026;-79
2023/08/05 04:14:10;;;;;;;8.90;3.25;;;14.80;99.90;;;14.19;100.00;101425.59;4136162;28;20022;-79
2023/08/05 04:16:11;;;;;;;13.68;3.42;;;14.80;99.90;;;14.17;100.00;101424.94;4165165;28;20548;-79
2023/08/05 04:18:12;;;;;;;7.20;3.88;;;14.80;99.90;;;14.13;100.00;101418.28;4135998;28;20032;-79
2023/08/05 04:20:13;;;;;;;4.32;2.90;;;14.80;99.90;;;14.11;100.00;101420.28;4152169;28;20025;-79
2023/08/05 04:22:18;;;;;;;5.22;3.30;;;14.80;99.90;;;14.14;100.00;101417.31;4134572;28;20046;-79
2023/08/05 04:24:22;;;;;;;5.53;3.13;;;14.80;99.90;;;14.13;100.00;101405.03;4149103;28;20378;-79
2023/08/05 04:26:23;;;;;;;9.50;3.40;;;14.70;99.90;;;14.10;100.00;101402.69;4153261;28;20033;-79
2023/08/05 04:28:24;;;;;;;6.68;2.85;;;14.70;99.90;;;14.09;100.00;101405.53;4151852;28;20033;-79
2023/08/05 04:30:24;;;;;;;5.78;3.22;;;14.70;99.90;;;14.10;100.00;101402.69;4161845;28;20517;-79
2023/08/05 04:32:25;;;;;;;6.85;2.97;;;14.70;99.90;;;14.10;100.00;101396.56;4165199;28;20021;-79
2023/08/05 04:34:26;;;;;;;5.10;2.92;;;14.70;99.90;;;14.08;100.00;101391.44;4169484;28;20037;-79
2023/08/05 04:36:27;;;;;;;11.50;4.13;;;14.70;99.90;;;14.06;100.00;101395.25;4169144;28;20370;-79
2023/08/05 04:38:28;;;;;;;6.43;3.22;;;14.70;99.90;;;14.07;100.00;101402.19;4158544;28;20057;-79
2023/08/05 04:40:29;;;;;;;7.53;3.17;;;14.70;99.90;;;14.02;100.00;101397.38;4153156;28;20444;-79
2023/08/05 04:42:30;;;;;;;5.70;3.60;;;14.70;99.90;;;14.07;100.00;101400.38;4153125;28;20033;-79
2023/08/05 04:44:31;;;;;;;7.15;3.47;;;14.70;99.90;;;14.03;100.00;101388.44;4157263;28;20032;-79
2023/08/05 04:46:32;;;;;;;10.75;4.32;;;14.70;99.90;;;14.07;100.00;101399.53;4135359;28;20073;-79
2023/08/05 04:48:32;;;;;;;7.85;2.95;;;14.60;99.90;;;14.02;100.00;101381.47;4151682;28;20022;-79
2023/08/05 04:50:37;;;;;;;5.05;2.90;;;14.60;99.90;;;14.02;100.00;101372.66;4152644;28;20105;-79
2023/08/05 04:52:39;;;;;;;8.80;3.65;;;14.70;99.90;;;14.03;100.00;101377.81;4157119;28;20500;-79
2023/08/05 04:54:45;;;;;;;7.68;3.45;;;14.60;99.90;;;14.03;100.00;101372.53;4152824;28;20025;-80
2023/08/05 04:56:47;;;;;;;6.13;3.55;;;14.60;99.90;;;13.99;100.00;101357.06;4151665;28;20030;-79
2023/08/05 04:58:47;;;;;;;8.45;3.80;;;14.60;99.90;;;13.99;100.00;101349.97;4151660;28;20121;-79
2023/08/05 05:00:48;;;;;;;9.30;3.70;;;14.60;99.90;;;14.00;100.00;101370.19;4152802;28;20025;-79
2023/08/05 05:02:49;;;;;;;8.70;3.83;;;14.60;99.90;;;13.97;100.00;101365.22;4151873;28;20034;-79
2023/08/05 05:04:50;;;;;;;7.90;3.45;;;14.60;99.90;;;14.00;100.00;101364.06;4152447;28;20025;-79
2023/08/05 05:06:51;;;;;;;6.15;3.72;;;14.60;99.90;;;13.98;100.00;101360.75;4151011;28;20026;-79
2023/08/05 05:08:52;;;;;;;8.52;3.55;;;14.60;99.90;;;13.97;100.00;101367.03;4152498;28;20050;-79
2023/08/05 05:10:52;;;;;;;7.88;3.53;;;14.60;99.90;;;13.98;100.00;101363.41;4161923;28;20042;-79
2023/08/05 05:12:53;;;;;;;8.50;3.88;;;14.60;99.90;;;13.95;100.00;101353.91;4168963;28;20079;-79
2023/08/05 05:14:54;;;;;;;11.55;4.28;;;14.60;99.90;;;13.96;100.00;101344.16;4167452;28;20025;-79
2023/08/05 05:16:55;;;;;;;8.13;3.72;;;14.50;99.90;;;13.93;100.00;101344.47;4162980;28;20397;-78
2023/08/05 05:18:56;;;;;;;8.32;4.40;;;14.50;99.90;;;13.94;100.00;101343.50;4160148;28;20048;-79
2023/08/05 05:20:57;;;;;;;9.40;4.05;;;14.50;99.90;;;13.95;100.00;101348.59;4151294;28;20022;-79
2023/08/05 05:22:57;;;;;;;17.08;4.90;;;14.60;99.90;;;13.92;100.00;101332.22;4152312;28;20022;-78
2023/08/05 05:24:59;;;;;;;9.05;3.47;;;14.50;99.90;;;13.93;100.00;101340.00;4152565;28;20462;-78
2023/08/05 05:27:00;;;;;;;8.27;3.85;;;14.60;99.90;;;13.91;100.00;101334.03;4159920;28;20029;-78
2023/08/05 05:29:01;;;;;;;6.32;3.97;;;14.60;99.90;;;13.94;100.00;101331.06;4146230;28;20042;-78
2023/08/05 05:31:03;;;;;;;10.07;3.88;;;14.60;99.90;;;14.00;100.00;101335.72;4152844;28;20026;-78
2023/08/05 05:33:04;;;;;;;9.05;4.10;;;14.60;99.90;;;13.98;100.00;101332.38;4152118;28;20025;-78
2023/08/05 05:35:05;;;;;;;7.57;4.45;;;14.60;99.90;;;13.99;100.00;101328.72;4158957;28;20033;-78
2023/08/05 05:37:06;;;;;;;7.88;4.13;;;14.60;99.90;;;13.98;100.00;101320.97;4151937;28;20034;-78
2023/08/05 05:39:07;;;;;;;13.82;4.93;;;14.60;99.90;;;13.98;100.00;101316.47;4166430;28;20022;-79
2023/08/05 05:41:08;;;;;;;11.88;5.20;;;14.60;99.90;;;13.89;100.00;101306.81;4168810;28;20029;-79
2023/08/05 05:43:09;;;;;;;10.35;4.97;;;14.60;99.90;;;13.94;100.00;101314.31;4143865;28;20023;-78
2023/08/05 05:45:10;;;;;;;11.25;5.32;;;14.60;99.90;;;13.90;100.00;101300.53;4151167;28;20026;-79
2023/08/05 05:47:11;;;;;;;11.70;5.55;;;14.60;99.90;;;13.91;100.00;101304.88;4134602;28;20592;-79
2023/08/05 05:49:12;;;;;;;10.60;5.40;;;14.50;99.90;;;13.92;100.00;101311.81;4151009;28;20401;-78
2023/08/05 05:51:13;;;;;;;12.85;5.43;;;14.60;99.90;;;13.93;100.00;101307.34;4141918;28;20061;-79
2023/08/05 05:53:14;;;;;;;12.48;5.13;;;14.50;99.90;;;13.92;100.00;101298.53;4152411;28;20030;-78
2023/08/05 05:55:15;;;;;;;9.88;5.10;;;14.50;99.90;;;13.90;100.00;101289.94;4164020;28;20022;-79
2023/08/05 05:57:16;;;;;;;12.43;5.70;;;14.50;99.90;;;13.93;100.00;101288.78;4151192;28;20103;-78
2023/08/05 05:59:17;;;;;;;12.60;6.03;;;14.50;99.90;;;13.86;100.00;101280.63;4159321;28;20025;-78
2023/08/05 06:01:18;;;;;;;9.68;5.55;;;14.60;99.90;;;13.92;100.00;101282.63;4156814;28;20069;-79
2023/08/05 06:03:19;;;;;;;15.40;5.00;;;14.50;99.90;;;13.89;100.00;101268.91;4165033;28;20048;-79
2023/08/05 06:05:19;;;;;;;12.45;4.97;;;14.50;99.90;;;13.91;100.00;101261.59;4154647;28;20056;-79
2023/08/05 06:07:20;;;;;;;8.45;4.95;;;14.60;99.90;;;13.99;100.00;101259.78;4152045;28;20489;-79
2023/08/05 06:09:21;;;;;;;9.43;4.78;;;14.60;99.90;;;14.01;100.00;101263.06;4162330;28;20033;-79
2023/08/05 06:11:22;;;;;;;8.25;4.93;;;14.60;99.90;;;14.00;100.00;101261.44;4168234;28;20030;-79
2023/08/05 06:13:23;;;;;;;8.18;4.72;;;14.60;99.90;;;14.03;100.00;101261.09;4168599;28;20128;-79
2023/08/05 06:15:25;;;;;;;9.02;4.10;;;14.60;99.90;;;13.92;100.00;101242.84;4168473;28;20030;-79
2023/08/05 06:17:26;;;;;;;9.23;4.30;;;14.60;99.90;;;14.07;100.00;101267.72;4157666;28;20041;-78
2023/08/05 06:19:27;;;;;;;6.70;3.90;;;14.70;99.90;;;14.03;100.00;101250.50;4152131;28;20381;-78
2023/08/05 06:21:28;;;;;;;7.28;3.00;;;14.60;99.90;;;14.02;100.00;101248.81;4163866;28;20030;-78
2023/08/05 06:23:29;;;;;;;7.68;3.15;;;14.60;99.90;;;14.02;100.00;101232.91;4152034;28;20030;-79
2023/08/05 06:25:30;;;;;;;5.70;3.13;;;14.70;99.90;;;14.06;100.00;101230.75;4151904;28;20585;-78
2023/08/05 06:27:31;;;;;;;4.25;2.22;;;14.70;99.90;;;14.04;100.00;101219.47;4163189;28;20025;-79
2023/08/05 06:29:32;;;;;;;7.93;2.80;;;14.70;99.90;;;14.07;100.00;101225.28;4153015;28;20046;-79
2023/08/05 06:31:32;;;;;;;5.05;3.03;;;14.70;99.90;;;14.02;100.00;101218.81;4168282;28;20033;-78
2023/08/05 06:33:33;;;;;;;7.30;3.55;;;14.70;99.90;;;14.11;100.00;101218.66;4158349;28;20460;-79
2023/08/05 06:35:35;;;;;;;4.88;2.88;;;14.70;99.90;;;14.16;100.00;101218.13;4151846;28;20033;-78
2023/08/05 06:37:36;;;;;;;6.82;3.53;;;14.70;99.90;;;14.17;100.00;101217.16;4152103;28;20100;-79
2023/08/05 06:39:37;;;;;;;8.93;3.60;;;14.80;99.90;;;14.20;100.00;101224.78;4151852;28;20022;-79
2023/08/05 06:41:37;;;;;;;6.85;4.22;;;14.70;99.90;;;14.20;100.00;101214.16;4152000;28;20398;-79
2023/08/05 06:43:38;;;;;;;6.47;4.70;;;14.80;99.90;;;14.20;100.00;101220.31;4159048;28;20026;-79
2023/08/05 06:45:39;;;;;;;10.20;4.22;;;14.80;99.90;;;14.17;100.00;101215.31;4170289;28;20493;-78
2023/08/05 06:47:40;;;;;;;9.10;4.45;;;14.80;99.90;;;14.17;100.00;101210.03;4164600;28;20038;-78
2023/08/05 06:49:41;;;;;;;12.10;4.45;;;14.80;99.90;;;14.20;100.00;101208.84;4154673;28;20036;-78
2023/08/05 06:51:42;;;;;;;11.38;4.53;;;14.80;99.90;;;14.27;100.00;101202.72;4166306;28;20555;-78
2023/08/05 06:53:44;;;;;;;10.90;4.70;;;14.80;99.90;;;14.36;100.00;101198.25;4171052;28;20082;-79
2023/08/05 06:55:45;;;;;;;8.68;4.00;;;14.90;99.90;;;14.44;100.00;101200.03;4166236;28;20030;-78
2023/08/05 06:57:48;;;;;;;8.43;4.63;;;15.00;99.90;;;14.40;100.00;101192.41;4161579;28;20032;-78
2023/08/05 06:59:49;;;;;;;9.98;4.35;;;15.00;99.90;;;14.39;100.00;101196.06;4157857;28;20080;-78
2023/08/05 07:01:50;;;;;;;8.40;4.00;;;15.00;99.90;;;14.36;100.00;101191.13;4153160;28;20464;-79
2023/08/05 07:03:50;;;;;;;6.43;3.80;;;15.00;99.90;;;14.33;100.00;101180.84;4154473;28;20021;-79
2023/08/05 07:05:56;;;;;;;8.45;4.13;;;15.00;99.90;;;14.32;100.00;101173.00;4152904;28;20022;-78
2023/08/05 07:07:56;;;;;;;7.53;3.25;;;15.00;99.90;;;14.38;100.00;101180.31;4164908;28;20029;-78
2023/08/05 07:10:01;;;;;;;11.52;4.95;;;15.00;99.90;;;14.41;100.00;101174.69;4154491;28;20081;-79
2023/08/05 07:12:02;;;;;;;6.97;3.88;;;15.00;99.90;;;14.44;100.00;101158.41;4154701;28;20022;-79
2023/08/05 07:14:03;;;;;;;9.02;3.92;;;15.00;99.90;;;14.42;100.00;101147.16;4161997;28;20022;-78
2023/08/05 07:16:04;;;;;;;9.77;3.60;;;15.10;99.90;;;14.52;100.00;101155.72;4159694;28;20028;-79
2023/08/05 07:18:05;;;;;;;8.80;3.40;;;15.10;99.90;;;14.69;100.00;101159.16;4155542;28;20022;-79
2023/08/05 07:20:07;;;;;;;8.73;4.13;;;15.20;99.90;;;14.72;100.00;101159.66;4154322;28;20029;-78
2023/08/05 07:22:08;;;;;;;9.05;3.45;;;15.30;99.90;;;14.83;100.00;101155.78;4153976;28;20033;-79
2023/08/05 07:24:09;;;;;;;7.00;3.40;;;15.40;99.90;;;14.77;100.00;101148.50;4169241;28;20033;-78
2023/08/05 07:26:09;;;;;;;9.35;3.20;;;15.40;99.90;;;14.76;100.00;101152.97;4139138;28;20032;-78
2023/08/05 07:28:10;;;;;;;5.72;3.25;;;15.40;99.90;;;14.71;100.00;101146.53;4154106;28;20037;-79
2023/08/05 07:30:11;;;;;;;9.10;3.58;;;15.30;99.90;;;14.78;100.00;101155.47;4160615;28;20041;-79
2023/08/05 07:32:12;;;;;;;8.45;3.33;;;15.40;99.90;;;14.79;100.00;101131.38;4164138;28;20028;-78
2023/08/05 07:34:15;;;;;;;12.18;3.75;;;15.50;99.90;;;15.03;100.00;101146.34;4152641;28;20497;-78
2023/08/05 07:36:16;;;;;;;8.77;4.20;;;15.50;99.90;;;15.25;100.00;101147.38;4153759;28;20032;-77
2023/08/05 07:38:20;;;;;;;5.45;3.42;;;15.70;99.90;;;15.29;100.00;101130.09;4153973;28;20022;-77
2023/08/05 07:40:20;;;;;;;8.43;3.20;;;15.80;99.90;;;15.33;100.00;101134.88;4165365;28;20104;-77
2023/08/05 07:42:24;;;;;;;7.90;3.08;;;16.00;99.90;;;15.36;100.00;101139.81;4154388;28;20113;-77
2023/08/05 07:44:25;;;;;;;7.13;3.30;;;16.00;99.90;;;15.48;100.00;101133.13;4154103;28;20022;-78
2023/08/05 07:46:26;;;;;;;7.65;2.97;;;16.10;99.90;;;15.58;100.00;101122.25;4161751;28;20409;-77
2023/08/05 07:48:27;;;;;;;4.88;3.00;;;16.10;99.90;;;15.64;100.00;101118.03;4170152;28;20025;-77
2023/08/05 07:50:28;;;;;;;6.95;3.20;;;16.20;99.90;;;15.67;100.00;101120.34;4170070;28;20036;-78
2023/08/05 07:52:28;;;;;;;6.13;2.67;;;16.30;99.90;;;15.63;100.00;101119.88;4164803;28;20026;-77
2023/08/05 07:54:29;;;;;;;8.55;2.83;;;16.30;99.90;;;15.52;100.00;101122.13;4153770;28;20029;-77
2023/08/05 07:56:32;;;;;;;7.40;2.95;;;16.20;99.90;;;15.44;100.00;101120.34;4164466;28;20052;-77
2023/08/05 07:58:33;;;;;;;8.60;2.78;;;16.10;99.90;;;15.39;100.00;101115.56;4154052;28;20026;-77
2023/08/05 08:00:34;;;;;;;6.65;3.35;;;16.10;99.90;;;15.35;100.00;101119.56;4153556;28;20508;-77
2023/08/05 08:02:34;;;;;;;9.07;2.95;;;16.00;99.90;;;15.32;100.00;101111.13;4161446;28;20067;-77
2023/08/05 08:04:36;;;;;;;7.10;3.45;;;16.00;99.90;;;15.34;100.00;101119.75;4157768;28;20516;-77
2023/08/05 08:06:37;;;;;;;5.22;3.20;;;16.00;99.90;;;15.61;100.00;101121.91;4152759;28;20026;-77
2023/08/05 08:08:37;;;;;;;10.30;3.03;;;16.10;99.90;;;16.12;100.00;101108.75;4165739;28;20022;-77
2023/08/05 08:10:38;;;;;;;9.25;3.55;;;16.50;99.90;;;16.45;100.00;101105.56;4159759;28;20029;-77
2023/08/05 08:12:39;;;;;;;6.40;2.63;;;16.80;99.90;;;16.62;100.00;101098.19;4135884;28;20034;-77
2023/08/05 08:14:40;;;;;;;8.30;2.97;;;17.00;99.90;;;16.56;100.00;101097.09;4152318;28;20038;-77
2023/08/05 08:16:41;;;;;;;4.35;2.00;;;17.10;99.90;;;16.59;100.00;101101.22;4160405;28;20088;-77
2023/08/05 08:18:42;;;;;;;3.95;2.50;;;17.10;99.90;;;16.49;100.00;101096.16;4159208;28;20025;-77